This is the latest recevied weather packets stored in our database for station/object KD2ZLA. If no packets are shown the sender has not sent any weather packets the latest 1 day(s).
| Time | Temp. | Humidity | Pressure | Rain* | Wind** | Luminosity | Snow |
|---|---|---|---|---|---|---|---|
| 1836274656 | 5° C | 93% | 1024.2 hPa | 0 mm | 0 m/s | 0 W/m² | - |
| 1836274509 | 4.44° C | 93% | 1024.3 hPa | 0 mm | 0.45 m/s, 89° | 0 W/m² | - |
| 1836274354 | 5° C | 93% | 1024.1 hPa | 0 mm | 0.89 m/s, 96° | 0 W/m² | - |
| 1836274208 | 5° C | 93% | 1024.4 hPa | 0 mm | 0 m/s | 0 W/m² | - |
| 1836274053 | 5° C | 93% | 1024.2 hPa | 0 mm | 0.45 m/s, 143° | 0 W/m² | - |
| 1778033841 | 8.89° C | 93% | 1008.7 hPa | 1.78 mm | 4.02 m/s, 219° | 0 W/m² | - |
| 1778033538 | 8.89° C | 93% | 1008.7 hPa | 2.29 mm | 0.89 m/s, 262° | 0 W/m² | - |
| 1778033234 | 8.89° C | 93% | 1008.8 hPa | 3.05 mm | 0.89 m/s, 229° | 0 W/m² | - |
| 1778032932 | 8.89° C | 93% | 1008.7 hPa | 3.05 mm | 1.34 m/s, 235° | 0 W/m² | - |
| 1778032629 | 8.89° C | 93% | 1008.7 hPa | 2.29 mm | 3.13 m/s, 234° | 0 W/m² | - |
| 1778032327 | 8.89° C | 93% | 1008.7 hPa | 2.29 mm | 2.24 m/s, 240° | 0 W/m² | - |
| 1778032024 | 8.89° C | 93% | 1008.8 hPa | 2.29 mm | 0.89 m/s, 253° | 0 W/m² | - |
| 1778031720 | 8.89° C | 93% | 1008.9 hPa | 3.05 mm | 1.79 m/s, 259° | 0 W/m² | - |
| 1778031418 | 8.89° C | 93% | 1009.1 hPa | 2.29 mm | 0.45 m/s, 247° | 0 W/m² | - |
| 1778031114 | 9.44° C | 93% | 1008.9 hPa | 2.29 mm | 1.79 m/s, 249° | 0 W/m² | - |
| 1778030811 | 9.44° C | 93% | 1008.8 hPa | 2.29 mm | 2.24 m/s, 236° | 0 W/m² | - |
| 1778030508 | 9.44° C | 92% | 1008.7 hPa | 1.78 mm | 1.34 m/s, 263° | 0 W/m² | - |
| 1778030205 | 9.44° C | 92% | 1008.7 hPa | 1.78 mm | 2.24 m/s, 207° | 0 W/m² | - |
| 1778029901 | 9.44° C | 92% | 1008.6 hPa | 2.29 mm | 0.89 m/s, 240° | 0 W/m² | - |
| 1778029600 | 9.44° C | 92% | 1008.4 hPa | 2.29 mm | 1.79 m/s, 248° | 0 W/m² | - |
| 1778029297 | 9.44° C | 91% | 1008.7 hPa | 1.78 mm | 1.34 m/s, 289° | 0 W/m² | - |
| 1778028993 | 10° C | 91% | 1008.5 hPa | 1.27 mm | 0.89 m/s, 259° | 0 W/m² | - |
| 1778028690 | 10° C | 90% | 1008.3 hPa | 1.27 mm | 1.34 m/s, 261° | 0 W/m² | - |
| 1778028386 | 10° C | 89% | 1008.1 hPa | 1.78 mm | 1.34 m/s, 257° | 0 W/m² | - |
| 1778028084 | 10° C | 89% | 1008.2 hPa | 2.29 mm | 0.89 m/s, 276° | 0 W/m² | - |
* Rain latest hour (hover to see other rain measurements)
** Current wind speed in m/s (hover to see current wind gust speed)